Terminal Aerodrome Forecast
Issued by NWS

Home | Current Version | Previous Version | Graphics & Text | Print | Product List | Glossary On
Versions: 1 2 3 4 5 6 7 8 9 10 11 12
277
FTUS43 KUNR 071120
TAFGCC
TAF
KGCC 071120Z 0712/0812 31024G34KT P6SM BKN080
     FM071600 30028G42KT P6SM SCT100
     FM080100 29016KT P6SM SCT200=

USA.gov is the U.S. government's official web portal to all federal, state and local government web resources and services.